sensor_id;sensor_type;location;lat;lon;timestamp;P1;durP1;ratioP1;P2;durP2;ratioP2
17482;SDS011;8858;52.308;20.994;2024-03-22T00:00:08;41.13;;;32.07;;
17482;SDS011;8858;52.308;20.994;2024-03-22T00:02:39;43.50;;;33.53;;
17482;SDS011;8858;52.308;20.994;2024-03-22T00:05:06;46.40;;;34.50;;
17482;SDS011;8858;52.308;20.994;2024-03-22T00:07:37;42.47;;;32.57;;
17482;SDS011;8858;52.308;20.994;2024-03-22T00:10:04;43.43;;;32.67;;
17482;SDS011;8858;52.308;20.994;2024-03-22T00:12:32;41.70;;;32.90;;
17482;SDS011;8858;52.308;20.994;2024-03-22T00:14:58;45.97;;;33.87;;
17482;SDS011;8858;52.308;20.994;2024-03-22T00:17:27;45.60;;;34.23;;
17482;SDS011;8858;52.308;20.994;2024-03-22T00:19:55;45.07;;;35.17;;
17482;SDS011;8858;52.308;20.994;2024-03-22T00:22:22;43.47;;;35.03;;
17482;SDS011;8858;52.308;20.994;2024-03-22T00:24:48;46.53;;;34.93;;
17482;SDS011;8858;52.308;20.994;2024-03-22T00:29:42;44.17;;;33.73;;
17482;SDS011;8858;52.308;20.994;2024-03-22T00:32:13;43.63;;;34.13;;
17482;SDS011;8858;52.308;20.994;2024-03-22T00:34:41;43.57;;;33.67;;
17482;SDS011;8858;52.308;20.994;2024-03-22T00:43:14;49.80;;;35.67;;
17482;SDS011;8858;52.308;20.994;2024-03-22T00:48:30;49.10;;;36.43;;
17482;SDS011;8858;52.308;20.994;2024-03-22T00:50:59;46.13;;;35.97;;
17482;SDS011;8858;52.308;20.994;2024-03-22T00:53:25;45.70;;;36.03;;
17482;SDS011;8858;52.308;20.994;2024-03-22T00:58:40;49.17;;;35.30;;
17482;SDS011;8858;52.308;20.994;2024-03-22T01:04:03;47.77;;;37.17;;
17482;SDS011;8858;52.308;20.994;2024-03-22T01:09:13;44.47;;;35.43;;
17482;SDS011;8858;52.308;20.994;2024-03-22T01:11:40;52.90;;;37.80;;
17482;SDS011;8858;52.308;20.994;2024-03-22T01:14:07;52.43;;;38.53;;
17482;SDS011;8858;52.308;20.994;2024-03-22T01:16:36;52.40;;;39.80;;
17482;SDS011;8858;52.308;20.994;2024-03-22T01:19:02;50.03;;;38.87;;
17482;SDS011;8858;52.308;20.994;2024-03-22T01:24:26;51.53;;;39.37;;
17482;SDS011;8858;52.308;20.994;2024-03-22T01:26:54;50.20;;;38.90;;
17482;SDS011;8858;52.308;20.994;2024-03-22T01:29:21;55.70;;;40.13;;
17482;SDS011;8858;52.308;20.994;2024-03-22T01:35:09;51.37;;;38.53;;
17482;SDS011;8858;52.308;20.994;2024-03-22T01:37:36;52.97;;;39.33;;
17482;SDS011;8858;52.308;20.994;2024-03-22T01:40:05;49.70;;;39.10;;
17482;SDS011;8858;52.308;20.994;2024-03-22T01:43:10;52.80;;;39.97;;
17482;SDS011;8858;52.308;20.994;2024-03-22T01:48:35;56.33;;;40.47;;
17482;SDS011;8858;52.308;20.994;2024-03-22T01:53:37;55.43;;;41.90;;
17482;SDS011;8858;52.308;20.994;2024-03-22T01:56:07;60.67;;;44.33;;
17482;SDS011;8858;52.308;20.994;2024-03-22T01:58:34;56.63;;;42.63;;
17482;SDS011;8858;52.308;20.994;2024-03-22T02:04:04;58.73;;;42.40;;
17482;SDS011;8858;52.308;20.994;2024-03-22T02:09:05;60.03;;;43.53;;
17482;SDS011;8858;52.308;20.994;2024-03-22T02:14:40;57.73;;;43.40;;
17482;SDS011;8858;52.308;20.994;2024-03-22T02:17:09;66.03;;;45.07;;
17482;SDS011;8858;52.308;20.994;2024-03-22T02:19:37;61.97;;;42.83;;
17482;SDS011;8858;52.308;20.994;2024-03-22T02:28:06;60.63;;;43.13;;
17482;SDS011;8858;52.308;20.994;2024-03-22T02:33:32;59.97;;;42.47;;
17482;SDS011;8858;52.308;20.994;2024-03-22T02:36:00;59.73;;;42.63;;
17482;SDS011;8858;52.308;20.994;2024-03-22T02:38:27;60.70;;;42.30;;
17482;SDS011;8858;52.308;20.994;2024-03-22T02:43:47;58.50;;;41.17;;
17482;SDS011;8858;52.308;20.994;2024-03-22T02:46:14;57.03;;;40.93;;
17482;SDS011;8858;52.308;20.994;2024-03-22T02:48:40;57.37;;;41.93;;
17482;SDS011;8858;52.308;20.994;2024-03-22T02:54:04;57.60;;;40.73;;
17482;SDS011;8858;52.308;20.994;2024-03-22T02:59:38;60.93;;;41.93;;
17482;SDS011;8858;52.308;20.994;2024-03-22T03:02:06;61.97;;;42.13;;
17482;SDS011;8858;52.308;20.994;2024-03-22T03:04:32;63.03;;;41.13;;
17482;SDS011;8858;52.308;20.994;2024-03-22T03:06:59;60.10;;;39.67;;
17482;SDS011;8858;52.308;20.994;2024-03-22T03:09:25;54.93;;;38.30;;
17482;SDS011;8858;52.308;20.994;2024-03-22T03:14:43;58.33;;;38.67;;
17482;SDS011;8858;52.308;20.994;2024-03-22T03:17:36;57.27;;;39.47;;
17482;SDS011;8858;52.308;20.994;2024-03-22T03:22:51;60.37;;;39.93;;
17482;SDS011;8858;52.308;20.994;2024-03-22T03:28:15;58.40;;;38.03;;
17482;SDS011;8858;52.308;20.994;2024-03-22T03:33:40;59.80;;;38.73;;
17482;SDS011;8858;52.308;20.994;2024-03-22T03:36:08;55.47;;;37.13;;
17482;SDS011;8858;52.308;20.994;2024-03-22T03:38:34;55.13;;;36.17;;
17482;SDS011;8858;52.308;20.994;2024-03-22T03:41:03;54.13;;;35.60;;
17482;SDS011;8858;52.308;20.994;2024-03-22T03:43:29;54.83;;;36.53;;
17482;SDS011;8858;52.308;20.994;2024-03-22T03:48:46;52.53;;;34.60;;
17482;SDS011;8858;52.308;20.994;2024-03-22T03:51:13;51.17;;;34.67;;
17482;SDS011;8858;52.308;20.994;2024-03-22T03:53:39;51.03;;;34.77;;
17482;SDS011;8858;52.308;20.994;2024-03-22T03:56:06;54.83;;;36.10;;
17482;SDS011;8858;52.308;20.994;2024-03-22T03:58:33;51.90;;;35.03;;
17482;SDS011;8858;52.308;20.994;2024-03-22T04:03:52;53.77;;;34.40;;
17482;SDS011;8858;52.308;20.994;2024-03-22T04:06:20;54.03;;;34.83;;
17482;SDS011;8858;52.308;20.994;2024-03-22T04:08:47;55.53;;;35.03;;
17482;SDS011;8858;52.308;20.994;2024-03-22T04:14:05;58.73;;;37.37;;
17482;SDS011;8858;52.308;20.994;2024-03-22T04:16:33;55.30;;;36.23;;
17482;SDS011;8858;52.308;20.994;2024-03-22T04:19:01;58.80;;;35.50;;
17482;SDS011;8858;52.308;20.994;2024-03-22T04:21:28;53.63;;;35.27;;
17482;SDS011;8858;52.308;20.994;2024-03-22T04:23:54;53.03;;;35.33;;
17482;SDS011;8858;52.308;20.994;2024-03-22T04:26:22;48.57;;;34.07;;
17482;SDS011;8858;52.308;20.994;2024-03-22T04:28:48;47.73;;;33.03;;
17482;SDS011;8858;52.308;20.994;2024-03-22T04:31:16;47.17;;;33.03;;
17482;SDS011;8858;52.308;20.994;2024-03-22T04:33:42;47.73;;;33.70;;
17482;SDS011;8858;52.308;20.994;2024-03-22T04:36:15;44.87;;;33.00;;
17482;SDS011;8858;52.308;20.994;2024-03-22T04:38:41;46.77;;;32.50;;
17482;SDS011;8858;52.308;20.994;2024-03-22T04:41:08;51.53;;;34.43;;
17482;SDS011;8858;52.308;20.994;2024-03-22T04:43:36;48.40;;;32.77;;
17482;SDS011;8858;52.308;20.994;2024-03-22T04:46:08;47.30;;;33.43;;
17482;SDS011;8858;52.308;20.994;2024-03-22T04:48:35;46.97;;;33.33;;
17482;SDS011;8858;52.308;20.994;2024-03-22T04:54:05;45.90;;;32.10;;
17482;SDS011;8858;52.308;20.994;2024-03-22T04:56:33;43.70;;;30.50;;
17482;SDS011;8858;52.308;20.994;2024-03-22T04:59:00;41.10;;;30.17;;
17482;SDS011;8858;52.308;20.994;2024-03-22T05:01:27;43.43;;;29.40;;
17482;SDS011;8858;52.308;20.994;2024-03-22T05:03:53;39.63;;;28.23;;
17482;SDS011;8858;52.308;20.994;2024-03-22T05:06:21;35.40;;;27.83;;
17482;SDS011;8858;52.308;20.994;2024-03-22T05:08:47;37.50;;;27.57;;
17482;SDS011;8858;52.308;20.994;2024-03-22T05:14:07;34.83;;;26.23;;
17482;SDS011;8858;52.308;20.994;2024-03-22T05:19:41;35.97;;;26.57;;
17482;SDS011;8858;52.308;20.994;2024-03-22T05:22:35;37.20;;;28.60;;
17482;SDS011;8858;52.308;20.994;2024-03-22T05:25:19;36.47;;;27.10;;
17482;SDS011;8858;52.308;20.994;2024-03-22T05:28:16;39.20;;;28.60;;
17482;SDS011;8858;52.308;20.994;2024-03-22T05:32:37;38.33;;;28.03;;
17482;SDS011;8858;52.308;20.994;2024-03-22T05:35:23;37.63;;;27.23;;
17482;SDS011;8858;52.308;20.994;2024-03-22T05:48:00;39.23;;;27.90;;
17482;SDS011;8858;52.308;20.994;2024-03-22T05:50:29;39.53;;;28.40;;
17482;SDS011;8858;52.308;20.994;2024-03-22T05:53:47;38.20;;;27.43;;
17482;SDS011;8858;52.308;20.994;2024-03-22T05:57:50;38.77;;;28.40;;
17482;SDS011;8858;52.308;20.994;2024-03-22T06:02:55;37.97;;;27.83;;
17482;SDS011;8858;52.308;20.994;2024-03-22T06:05:24;37.53;;;27.27;;
17482;SDS011;8858;52.308;20.994;2024-03-22T06:07:53;40.47;;;27.73;;
17482;SDS011;8858;52.308;20.994;2024-03-22T06:10:36;34.97;;;27.17;;
17482;SDS011;8858;52.308;20.994;2024-03-22T06:32:18;38.33;;;26.43;;
17482;SDS011;8858;52.308;20.994;2024-03-22T06:37:48;35.27;;;25.67;;
17482;SDS011;8858;52.308;20.994;2024-03-22T06:40:16;34.80;;;26.67;;
17482;SDS011;8858;52.308;20.994;2024-03-22T06:42:42;39.13;;;26.20;;
17482;SDS011;8858;52.308;20.994;2024-03-22T06:48:00;32.43;;;24.40;;
17482;SDS011;8858;52.308;20.994;2024-03-22T06:50:27;33.30;;;24.83;;
17482;SDS011;8858;52.308;20.994;2024-03-22T06:52:54;35.83;;;25.43;;
17482;SDS011;8858;52.308;20.994;2024-03-22T07:07:08;35.13;;;24.87;;
17482;SDS011;8858;52.308;20.994;2024-03-22T07:12:30;32.83;;;24.10;;
17482;SDS011;8858;52.308;20.994;2024-03-22T07:15:02;34.03;;;25.00;;
17482;SDS011;8858;52.308;20.994;2024-03-22T07:17:29;35.50;;;25.83;;
17482;SDS011;8858;52.308;20.994;2024-03-22T07:23:03;33.93;;;23.90;;
17482;SDS011;8858;52.308;20.994;2024-03-22T07:28:26;35.60;;;25.03;;
17482;SDS011;8858;52.308;20.994;2024-03-22T07:30:53;34.97;;;24.50;;
17482;SDS011;8858;52.308;20.994;2024-03-22T07:33:22;34.20;;;24.20;;
17482;SDS011;8858;52.308;20.994;2024-03-22T07:35:49;35.27;;;25.27;;
17482;SDS011;8858;52.308;20.994;2024-03-22T07:38:17;36.10;;;25.23;;
17482;SDS011;8858;52.308;20.994;2024-03-22T07:40:44;39.37;;;26.83;;
17482;SDS011;8858;52.308;20.994;2024-03-22T07:43:13;35.17;;;25.30;;
17482;SDS011;8858;52.308;20.994;2024-03-22T07:48:38;35.90;;;25.47;;
17482;SDS011;8858;52.308;20.994;2024-03-22T07:51:05;37.43;;;25.80;;
17482;SDS011;8858;52.308;20.994;2024-03-22T07:53:32;39.90;;;27.03;;
17482;SDS011;8858;52.308;20.994;2024-03-22T07:56:00;37.57;;;26.83;;
17482;SDS011;8858;52.308;20.994;2024-03-22T07:58:26;37.70;;;25.80;;
17482;SDS011;8858;52.308;20.994;2024-03-22T08:00:53;35.27;;;25.73;;
17482;SDS011;8858;52.308;20.994;2024-03-22T08:03:19;37.67;;;27.33;;
17482;SDS011;8858;52.308;20.994;2024-03-22T08:14:40;40.70;;;29.07;;
17482;SDS011;8858;52.308;20.994;2024-03-22T08:17:08;37.10;;;27.50;;
17482;SDS011;8858;52.308;20.994;2024-03-22T08:22:31;37.10;;;26.53;;
17482;SDS011;8858;52.308;20.994;2024-03-22T08:25:02;33.20;;;24.73;;
17482;SDS011;8858;52.308;20.994;2024-03-22T08:27:29;34.03;;;25.30;;
17482;SDS011;8858;52.308;20.994;2024-03-22T08:29:58;36.77;;;26.07;;
17482;SDS011;8858;52.308;20.994;2024-03-22T08:32:24;35.97;;;26.10;;
17482;SDS011;8858;52.308;20.994;2024-03-22T08:37:40;34.87;;;24.87;;
17482;SDS011;8858;52.308;20.994;2024-03-22T08:42:50;32.63;;;23.63;;
17482;SDS011;8858;52.308;20.994;2024-03-22T08:45:18;30.23;;;23.83;;
17482;SDS011;8858;52.308;20.994;2024-03-22T08:47:45;32.93;;;23.87;;
17482;SDS011;8858;52.308;20.994;2024-03-22T08:50:12;31.97;;;23.17;;
17482;SDS011;8858;52.308;20.994;2024-03-22T08:52:39;34.47;;;24.83;;
17482;SDS011;8858;52.308;20.994;2024-03-22T08:55:08;32.53;;;24.73;;
17482;SDS011;8858;52.308;20.994;2024-03-22T08:57:34;33.80;;;25.23;;
17482;SDS011;8858;52.308;20.994;2024-03-22T09:02:50;27.83;;;21.33;;
17482;SDS011;8858;52.308;20.994;2024-03-22T09:05:21;30.07;;;22.20;;
17482;SDS011;8858;52.308;20.994;2024-03-22T09:07:48;32.60;;;25.87;;
17482;SDS011;8858;52.308;20.994;2024-03-22T09:16:01;28.37;;;21.20;;
17482;SDS011;8858;52.308;20.994;2024-03-22T09:18:30;29.43;;;21.63;;
17482;SDS011;8858;52.308;20.994;2024-03-22T09:20:57;31.50;;;21.63;;
17482;SDS011;8858;52.308;20.994;2024-03-22T09:26:27;29.40;;;20.67;;
17482;SDS011;8858;52.308;20.994;2024-03-22T09:28:54;29.83;;;21.10;;
17482;SDS011;8858;52.308;20.994;2024-03-22T09:31:20;27.43;;;20.83;;
17482;SDS011;8858;52.308;20.994;2024-03-22T09:36:51;26.53;;;20.47;;
17482;SDS011;8858;52.308;20.994;2024-03-22T09:42:28;25.77;;;21.47;;
17482;SDS011;8858;52.308;20.994;2024-03-22T09:44:59;27.63;;;21.20;;
17482;SDS011;8858;52.308;20.994;2024-03-22T09:47:26;27.50;;;20.57;;
17482;SDS011;8858;52.308;20.994;2024-03-22T09:52:51;25.53;;;20.27;;
17482;SDS011;8858;52.308;20.994;2024-03-22T09:55:20;28.43;;;21.33;;
17482;SDS011;8858;52.308;20.994;2024-03-22T09:57:50;25.17;;;20.37;;
17482;SDS011;8858;52.308;20.994;2024-03-22T10:02:58;25.43;;;20.30;;
17482;SDS011;8858;52.308;20.994;2024-03-22T10:05:29;27.50;;;20.17;;
17482;SDS011;8858;52.308;20.994;2024-03-22T10:07:57;22.37;;;18.60;;
17482;SDS011;8858;52.308;20.994;2024-03-22T10:10:24;22.57;;;18.30;;
17482;SDS011;8858;52.308;20.994;2024-03-22T10:12:51;24.40;;;18.23;;
17482;SDS011;8858;52.308;20.994;2024-03-22T10:15:18;23.37;;;18.93;;
17482;SDS011;8858;52.308;20.994;2024-03-22T10:17:45;23.50;;;18.70;;
17482;SDS011;8858;52.308;20.994;2024-03-22T10:20:13;20.30;;;17.03;;
17482;SDS011;8858;52.308;20.994;2024-03-22T10:22:41;20.17;;;17.03;;
17482;SDS011;8858;52.308;20.994;2024-03-22T10:25:10;20.67;;;16.67;;
17482;SDS011;8858;52.308;20.994;2024-03-22T10:27:38;20.00;;;16.10;;
17482;SDS011;8858;52.308;20.994;2024-03-22T10:32:38;21.20;;;15.70;;
17482;SDS011;8858;52.308;20.994;2024-03-22T10:41:07;19.27;;;16.83;;
17482;SDS011;8858;52.308;20.994;2024-03-22T10:46:33;22.53;;;18.23;;
17482;SDS011;8858;52.308;20.994;2024-03-22T10:49:00;20.17;;;17.77;;
17482;SDS011;8858;52.308;20.994;2024-03-22T10:51:29;22.50;;;17.80;;
17482;SDS011;8858;52.308;20.994;2024-03-22T10:56:57;23.40;;;18.67;;
17482;SDS011;8858;52.308;20.994;2024-03-22T10:59:26;22.80;;;19.17;;
17482;SDS011;8858;52.308;20.994;2024-03-22T11:01:52;22.13;;;19.10;;
17482;SDS011;8858;52.308;20.994;2024-03-22T11:07:19;23.53;;;18.83;;
17482;SDS011;8858;52.308;20.994;2024-03-22T11:09:51;22.10;;;19.30;;
17482;SDS011;8858;52.308;20.994;2024-03-22T11:12:19;23.70;;;20.00;;
17482;SDS011;8858;52.308;20.994;2024-03-22T11:14:50;21.33;;;19.03;;
17482;SDS011;8858;52.308;20.994;2024-03-22T11:17:17;22.90;;;19.73;;
17482;SDS011;8858;52.308;20.994;2024-03-22T11:19:45;24.40;;;19.77;;
17482;SDS011;8858;52.308;20.994;2024-03-22T11:22:11;24.63;;;19.30;;
17482;SDS011;8858;52.308;20.994;2024-03-22T11:24:43;21.87;;;19.60;;
17482;SDS011;8858;52.308;20.994;2024-03-22T11:27:10;24.97;;;20.57;;
17482;SDS011;8858;52.308;20.994;2024-03-22T11:29:39;24.63;;;21.17;;
17482;SDS011;8858;52.308;20.994;2024-03-22T11:32:07;24.73;;;20.53;;
17482;SDS011;8858;52.308;20.994;2024-03-22T11:34:35;24.20;;;21.00;;
17482;SDS011;8858;52.308;20.994;2024-03-22T11:37:02;22.13;;;19.40;;
17482;SDS011;8858;52.308;20.994;2024-03-22T11:39:29;21.87;;;18.87;;
17482;SDS011;8858;52.308;20.994;2024-03-22T11:41:55;23.83;;;18.77;;
17482;SDS011;8858;52.308;20.994;2024-03-22T11:44:23;20.83;;;17.93;;
17482;SDS011;8858;52.308;20.994;2024-03-22T11:46:52;22.10;;;17.37;;
17482;SDS011;8858;52.308;20.994;2024-03-22T11:49:20;20.67;;;17.70;;
17482;SDS011;8858;52.308;20.994;2024-03-22T11:51:51;24.83;;;20.77;;
17482;SDS011;8858;52.308;20.994;2024-03-22T11:54:19;25.20;;;19.57;;
17482;SDS011;8858;52.308;20.994;2024-03-22T11:56:45;25.80;;;19.60;;
17482;SDS011;8858;52.308;20.994;2024-03-22T11:59:12;20.40;;;17.60;;
17482;SDS011;8858;52.308;20.994;2024-03-22T12:01:40;19.20;;;15.50;;
17482;SDS011;8858;52.308;20.994;2024-03-22T12:06:57;18.73;;;14.17;;
17482;SDS011;8858;52.308;20.994;2024-03-22T12:09:26;16.30;;;13.77;;
17482;SDS011;8858;52.308;20.994;2024-03-22T12:11:54;15.70;;;13.40;;
17482;SDS011;8858;52.308;20.994;2024-03-22T12:14:23;14.43;;;12.70;;
17482;SDS011;8858;52.308;20.994;2024-03-22T12:16:49;15.53;;;13.17;;
17482;SDS011;8858;52.308;20.994;2024-03-22T12:19:17;16.20;;;13.33;;
17482;SDS011;8858;52.308;20.994;2024-03-22T12:21:46;16.23;;;13.30;;
17482;SDS011;8858;52.308;20.994;2024-03-22T12:24:16;15.13;;;12.43;;
17482;SDS011;8858;52.308;20.994;2024-03-22T12:26:42;18.00;;;13.50;;
17482;SDS011;8858;52.308;20.994;2024-03-22T12:29:09;17.30;;;13.43;;
17482;SDS011;8858;52.308;20.994;2024-03-22T12:31:37;14.93;;;13.10;;
17482;SDS011;8858;52.308;20.994;2024-03-22T12:34:04;15.83;;;13.40;;
17482;SDS011;8858;52.308;20.994;2024-03-22T12:36:34;15.60;;;13.53;;
17482;SDS011;8858;52.308;20.994;2024-03-22T12:41:51;20.93;;;14.00;;
17482;SDS011;8858;52.308;20.994;2024-03-22T12:44:20;18.00;;;13.13;;
17482;SDS011;8858;52.308;20.994;2024-03-22T12:46:52;18.67;;;14.80;;
17482;SDS011;8858;52.308;20.994;2024-03-22T12:49:20;18.90;;;14.03;;
17482;SDS011;8858;52.308;20.994;2024-03-22T12:51:48;21.57;;;14.77;;
17482;SDS011;8858;52.308;20.994;2024-03-22T12:54:15;18.00;;;13.63;;
17482;SDS011;8858;52.308;20.994;2024-03-22T12:56:48;17.83;;;14.10;;
17482;SDS011;8858;52.308;20.994;2024-03-22T13:02:03;17.10;;;13.50;;
17482;SDS011;8858;52.308;20.994;2024-03-22T13:04:31;16.43;;;13.83;;
17482;SDS011;8858;52.308;20.994;2024-03-22T13:06:58;17.97;;;13.60;;
17482;SDS011;8858;52.308;20.994;2024-03-22T13:09:25;19.20;;;14.27;;
17482;SDS011;8858;52.308;20.994;2024-03-22T13:11:52;18.17;;;13.73;;
17482;SDS011;8858;52.308;20.994;2024-03-22T13:14:21;20.00;;;14.43;;
17482;SDS011;8858;52.308;20.994;2024-03-22T13:16:50;18.47;;;13.70;;
17482;SDS011;8858;52.308;20.994;2024-03-22T13:19:20;18.67;;;13.20;;
17482;SDS011;8858;52.308;20.994;2024-03-22T13:21:52;16.53;;;12.87;;
17482;SDS011;8858;52.308;20.994;2024-03-22T13:24:19;16.57;;;14.10;;
17482;SDS011;8858;52.308;20.994;2024-03-22T13:26:50;18.47;;;14.07;;
17482;SDS011;8858;52.308;20.994;2024-03-22T13:29:17;16.63;;;12.77;;
17482;SDS011;8858;52.308;20.994;2024-03-22T13:31:44;18.50;;;13.57;;
17482;SDS011;8858;52.308;20.994;2024-03-22T13:34:12;17.07;;;13.73;;
17482;SDS011;8858;52.308;20.994;2024-03-22T13:36:42;16.50;;;12.80;;
17482;SDS011;8858;52.308;20.994;2024-03-22T13:39:10;16.33;;;12.27;;
17482;SDS011;8858;52.308;20.994;2024-03-22T13:41:41;14.43;;;12.50;;
17482;SDS011;8858;52.308;20.994;2024-03-22T13:47:05;14.37;;;12.90;;
17482;SDS011;8858;52.308;20.994;2024-03-22T13:49:33;17.40;;;12.10;;
17482;SDS011;8858;52.308;20.994;2024-03-22T13:52:01;15.23;;;13.33;;
17482;SDS011;8858;52.308;20.994;2024-03-22T13:57:07;17.60;;;15.63;;
17482;SDS011;8858;52.308;20.994;2024-03-22T13:59:36;18.23;;;13.63;;
17482;SDS011;8858;52.308;20.994;2024-03-22T14:02:02;19.17;;;13.60;;
17482;SDS011;8858;52.308;20.994;2024-03-22T14:04:34;18.17;;;13.57;;
17482;SDS011;8858;52.308;20.994;2024-03-22T14:07:02;16.73;;;14.23;;
17482;SDS011;8858;52.308;20.994;2024-03-22T14:09:30;15.03;;;13.47;;
17482;SDS011;8858;52.308;20.994;2024-03-22T14:11:57;18.00;;;13.67;;
17482;SDS011;8858;52.308;20.994;2024-03-22T14:14:25;16.13;;;13.27;;
17482;SDS011;8858;52.308;20.994;2024-03-22T14:16:52;15.63;;;13.93;;
17482;SDS011;8858;52.308;20.994;2024-03-22T14:19:21;18.17;;;14.63;;
17482;SDS011;8858;52.308;20.994;2024-03-22T14:21:50;18.20;;;15.47;;
17482;SDS011;8858;52.308;20.994;2024-03-22T14:24:18;16.47;;;14.70;;
17482;SDS011;8858;52.308;20.994;2024-03-22T14:26:46;17.17;;;15.33;;
17482;SDS011;8858;52.308;20.994;2024-03-22T14:35:18;17.80;;;15.90;;
17482;SDS011;8858;52.308;20.994;2024-03-22T14:37:47;17.50;;;15.63;;
17482;SDS011;8858;52.308;20.994;2024-03-22T14:40:15;17.00;;;15.20;;
17482;SDS011;8858;52.308;20.994;2024-03-22T14:45:45;17.03;;;14.70;;
17482;SDS011;8858;52.308;20.994;2024-03-22T14:48:15;16.93;;;15.23;;
17482;SDS011;8858;52.308;20.994;2024-03-22T14:50:41;17.73;;;15.80;;
17482;SDS011;8858;52.308;20.994;2024-03-22T14:55:59;18.60;;;16.23;;
17482;SDS011;8858;52.308;20.994;2024-03-22T14:58:31;17.00;;;15.30;;
17482;SDS011;8858;52.308;20.994;2024-03-22T15:00:57;18.13;;;15.63;;
17482;SDS011;8858;52.308;20.994;2024-03-22T15:03:26;17.20;;;15.40;;
17482;SDS011;8858;52.308;20.994;2024-03-22T15:05:53;17.57;;;15.77;;
17482;SDS011;8858;52.308;20.994;2024-03-22T15:08:22;18.47;;;16.53;;
17482;SDS011;8858;52.308;20.994;2024-03-22T15:10:49;17.37;;;15.57;;
17482;SDS011;8858;52.308;20.994;2024-03-22T15:13:18;17.87;;;16.07;;
17482;SDS011;8858;52.308;20.994;2024-03-22T15:15:51;19.60;;;16.30;;
17482;SDS011;8858;52.308;20.994;2024-03-22T15:24:32;17.13;;;15.33;;
17482;SDS011;8858;52.308;20.994;2024-03-22T15:30:06;17.70;;;15.80;;
17482;SDS011;8858;52.308;20.994;2024-03-22T15:35:24;18.90;;;16.77;;
17482;SDS011;8858;52.308;20.994;2024-03-22T15:40:47;18.40;;;16.50;;
17482;SDS011;8858;52.308;20.994;2024-03-22T15:45:58;19.43;;;17.47;;
17482;SDS011;8858;52.308;20.994;2024-03-22T15:48:29;20.10;;;18.00;;
17482;SDS011;8858;52.308;20.994;2024-03-22T15:50:56;19.13;;;16.73;;
17482;SDS011;8858;52.308;20.994;2024-03-22T15:56:26;19.63;;;17.53;;
17482;SDS011;8858;52.308;20.994;2024-03-22T16:05:06;20.90;;;18.17;;
17482;SDS011;8858;52.308;20.994;2024-03-22T16:07:34;20.40;;;18.03;;
17482;SDS011;8858;52.308;20.994;2024-03-22T16:10:01;20.17;;;17.97;;
17482;SDS011;8858;52.308;20.994;2024-03-22T16:15:24;20.77;;;18.57;;
17482;SDS011;8858;52.308;20.994;2024-03-22T16:17:51;19.87;;;17.87;;
17482;SDS011;8858;52.308;20.994;2024-03-22T16:20:19;20.50;;;18.30;;
17482;SDS011;8858;52.308;20.994;2024-03-22T16:22:47;21.37;;;19.13;;
17482;SDS011;8858;52.308;20.994;2024-03-22T16:25:13;20.50;;;18.30;;
17482;SDS011;8858;52.308;20.994;2024-03-22T16:27:41;20.93;;;18.03;;
17482;SDS011;8858;52.308;20.994;2024-03-22T16:30:12;20.37;;;18.17;;
17482;SDS011;8858;52.308;20.994;2024-03-22T16:32:39;21.67;;;17.40;;
17482;SDS011;8858;52.308;20.994;2024-03-22T16:35:06;18.77;;;16.40;;
17482;SDS011;8858;52.308;20.994;2024-03-22T16:40:24;21.37;;;18.70;;
17482;SDS011;8858;52.308;20.994;2024-03-22T16:42:52;20.17;;;17.77;;
17482;SDS011;8858;52.308;20.994;2024-03-22T16:45:19;21.30;;;18.53;;
17482;SDS011;8858;52.308;20.994;2024-03-22T16:50:36;19.97;;;17.27;;
17482;SDS011;8858;52.308;20.994;2024-03-22T16:53:04;18.37;;;16.43;;
17482;SDS011;8858;52.308;20.994;2024-03-22T16:55:31;18.93;;;17.03;;
17482;SDS011;8858;52.308;20.994;2024-03-22T17:00:47;18.90;;;16.90;;
17482;SDS011;8858;52.308;20.994;2024-03-22T17:03:14;19.13;;;16.07;;
17482;SDS011;8858;52.308;20.994;2024-03-22T17:05:40;20.03;;;17.83;;
17482;SDS011;8858;52.308;20.994;2024-03-22T17:08:08;17.77;;;15.87;;
17482;SDS011;8858;52.308;20.994;2024-03-22T17:10:41;17.73;;;15.83;;
17482;SDS011;8858;52.308;20.994;2024-03-22T17:13:08;17.57;;;15.67;;
17482;SDS011;8858;52.308;20.994;2024-03-22T17:15:35;17.60;;;15.80;;
17482;SDS011;8858;52.308;20.994;2024-03-22T17:18:03;18.77;;;16.23;;
17482;SDS011;8858;52.308;20.994;2024-03-22T17:20:29;17.43;;;15.63;;
17482;SDS011;8858;52.308;20.994;2024-03-22T17:25:48;16.90;;;15.03;;
17482;SDS011;8858;52.308;20.994;2024-03-22T17:28:16;17.40;;;15.60;;
17482;SDS011;8858;52.308;20.994;2024-03-22T17:30:44;17.13;;;15.33;;
17482;SDS011;8858;52.308;20.994;2024-03-22T17:36:18;21.17;;;18.27;;
17482;SDS011;8858;52.308;20.994;2024-03-22T17:38:49;18.37;;;15.67;;
17482;SDS011;8858;52.308;20.994;2024-03-22T17:41:20;16.70;;;15.10;;
17482;SDS011;8858;52.308;20.994;2024-03-22T17:43:48;17.00;;;15.40;;
17482;SDS011;8858;52.308;20.994;2024-03-22T17:46:14;17.07;;;15.23;;
17482;SDS011;8858;52.308;20.994;2024-03-22T17:48:42;19.07;;;16.83;;
17482;SDS011;8858;52.308;20.994;2024-03-22T17:51:08;17.43;;;15.63;;
17482;SDS011;8858;52.308;20.994;2024-03-22T17:53:36;16.10;;;14.60;;
17482;SDS011;8858;52.308;20.994;2024-03-22T17:56:03;17.13;;;15.33;;
17482;SDS011;8858;52.308;20.994;2024-03-22T17:58:33;17.17;;;15.37;;
17482;SDS011;8858;52.308;20.994;2024-03-22T18:00:59;16.43;;;14.73;;
17482;SDS011;8858;52.308;20.994;2024-03-22T18:03:27;17.03;;;15.07;;
17482;SDS011;8858;52.308;20.994;2024-03-22T18:05:57;17.13;;;15.30;;
17482;SDS011;8858;52.308;20.994;2024-03-22T18:08:29;17.33;;;15.50;;
17482;SDS011;8858;52.308;20.994;2024-03-22T18:10:56;17.30;;;15.50;;
17482;SDS011;8858;52.308;20.994;2024-03-22T18:13:24;16.60;;;14.80;;
17482;SDS011;8858;52.308;20.994;2024-03-22T18:15:51;19.17;;;14.97;;
17482;SDS011;8858;52.308;20.994;2024-03-22T18:18:19;16.87;;;14.83;;
17482;SDS011;8858;52.308;20.994;2024-03-22T18:20:46;17.00;;;14.73;;
17482;SDS011;8858;52.308;20.994;2024-03-22T18:23:15;16.63;;;14.93;;
17482;SDS011;8858;52.308;20.994;2024-03-22T18:25:45;16.93;;;15.17;;
17482;SDS011;8858;52.308;20.994;2024-03-22T18:28:16;19.83;;;15.13;;
17482;SDS011;8858;52.308;20.994;2024-03-22T18:30:42;17.77;;;14.87;;
17482;SDS011;8858;52.308;20.994;2024-03-22T18:33:14;16.60;;;14.70;;
17482;SDS011;8858;52.308;20.994;2024-03-22T18:35:41;15.87;;;14.10;;
17482;SDS011;8858;52.308;20.994;2024-03-22T18:38:09;17.57;;;13.67;;
17482;SDS011;8858;52.308;20.994;2024-03-22T18:40:35;15.83;;;14.10;;
17482;SDS011;8858;52.308;20.994;2024-03-22T18:43:02;15.97;;;14.30;;
17482;SDS011;8858;52.308;20.994;2024-03-22T18:45:29;16.13;;;14.20;;
17482;SDS011;8858;52.308;20.994;2024-03-22T18:47:56;16.07;;;14.03;;
17482;SDS011;8858;52.308;20.994;2024-03-22T18:50:24;17.27;;;14.47;;
17482;SDS011;8858;52.308;20.994;2024-03-22T18:52:53;18.33;;;14.23;;
17482;SDS011;8858;52.308;20.994;2024-03-22T18:55:19;15.90;;;14.20;;
17482;SDS011;8858;52.308;20.994;2024-03-22T19:00:49;16.43;;;14.43;;
17482;SDS011;8858;52.308;20.994;2024-03-22T19:03:17;19.00;;;13.33;;
17482;SDS011;8858;52.308;20.994;2024-03-22T19:05:44;15.90;;;14.00;;
17482;SDS011;8858;52.308;20.994;2024-03-22T19:08:11;18.00;;;13.80;;
17482;SDS011;8858;52.308;20.994;2024-03-22T19:10:38;15.53;;;13.87;;